Herminie, Pennsylvania
Current Conditions -  °F | °C
As of 2:53 AM on Tuesday 27 Jan 2015 (Local Time) from KAGC Reporting Station
Haze Haze  
Wind Chill:   Ceiling: 600
Heat Index: 19°   Visibility: 4mi
Dew Point: 15°   Wind: 8mph
Humidity: 85%   Direction: 300°WNW
Pressure: 29.82"   Gusts: NA
Location:  40.26°N, 79.72°W
Report Text: KAGC 270753Z 30007KT 4SM BR OVC006 M07/M09 A2982 RMK AO2 CIG 005V009 SLP121 I1000 T10721094
Loading
Personal Weather Stations






























Interactive Weather Map New forecast layout! Learn more

10-Day Weather Forecast

Advertisements
Track Severe Weather on mobile